Charana, Bolivia
Current Conditions -  °F | °C
As of 1:00 PM on Friday 31 Oct 2014 (Local Time) from SPTN Reporting Station
Clear Clear  
Wind Chill: 72°   Ceiling: Unl
Heat Index: 72°   Visibility: 6mi
Dew Point: 55°   Wind: 7mph
Humidity: 57%   Direction: NA
Pressure: 29.85"   Gusts: NA
Location:  17.59°S, 69.44°W
Report Text: SPTN 311700Z VRB06KT CAVOK 22/13 Q1011 RMK PP000
Loading
Personal Weather Stations






























Interactive Weather Map
Tropical Storm Tracking
New forecast layout! Learn more

10-Day Weather Forecast

Advertisements
Track Severe Weather on mobile